Time;durP1;ratioP1;P1;durP2;ratioP2;P2;SDS_P1;SDS_P2;PMS_P1;PMS_P2;Temp;Humidity;BMP_temperature;BMP_pressure;BME280_temperature;BME280_humidity;BME280_pressure;Samples;Min_cycle;Max_cycle;Signal;HPM_P1;HPM_P2
2022/12/26 00:01:40;;;;;;;13.43;7.15;;;;;;;;;;5052092;28;20383;-66
2022/12/26 00:04:05;;;;;;;11.02;7.70;;;;;;;;;;5052266;28;20044;-66
2022/12/26 00:06:31;;;;;;;14.50;7.45;;;;;;;;;;5052209;28;20459;-66
2022/12/26 00:08:57;;;;;;;11.30;7.43;;;;;;;;;;5040411;28;20049;-67
2022/12/26 00:11:23;;;;;;;11.25;7.00;;;;;;;;;;5051136;28;20028;-66
2022/12/26 00:13:59;;;;;;;19.13;7.78;;;;;;;;;;5052863;28;20097;-67
2022/12/26 00:16:25;;;;;;;11.85;7.88;;;;;;;;;;5051632;28;20017;-66
2022/12/26 00:18:50;;;;;;;14.00;7.05;;;;;;;;;;5051649;28;20032;-67
2022/12/26 00:21:16;;;;;;;12.32;7.53;;;;;;;;;;5050615;28;20017;-67
2022/12/26 00:23:41;;;;;;;11.15;8.32;;;;;;;;;;5051701;28;20025;-67
2022/12/26 00:26:11;;;;;;;13.70;7.53;;;;;;;;;;5051563;28;20025;-66
2022/12/26 00:28:37;;;;;;;13.88;7.88;;;;;;;;;;5051104;28;20048;-66
2022/12/26 00:31:03;;;;;;;13.25;7.22;;;;;;;;;;5052176;28;20440;-66
2022/12/26 00:33:28;;;;;;;13.02;7.57;;;;;;;;;;5052200;28;20027;-66
2022/12/26 00:35:59;;;;;;;11.57;7.00;;;;;;;;;;5051412;28;20017;-67
2022/12/26 00:38:24;;;;;;;8.93;7.60;;;;;;;;;;5051695;28;20474;-66
2022/12/26 00:40:49;;;;;;;14.57;8.02;;;;;;;;;;5049979;28;20033;-67
2022/12/26 00:43:14;;;;;;;17.10;8.57;;;;;;;;;;5052224;28;20690;-67
2022/12/26 00:45:43;;;;;;;14.97;8.53;;;;;;;;;;5045737;28;20021;-66
2022/12/26 00:48:08;;;;;;;13.25;8.02;;;;;;;;;;5040966;28;20748;-67
2022/12/26 00:50:33;;;;;;;13.80;8.63;;;;;;;;;;5042428;28;20092;-67
2022/12/26 00:52:58;;;;;;;13.30;9.20;;;;;;;;;;5051362;28;20784;-67
2022/12/26 00:55:24;;;;;;;11.07;8.00;;;;;;;;;;5051646;28;20028;-67
2022/12/26 00:57:49;;;;;;;12.55;8.32;;;;;;;;;;5054639;28;20016;-67
2022/12/26 01:00:14;;;;;;;17.30;7.90;;;;;;;;;;5052038;28;20025;-67
2022/12/26 01:02:40;;;;;;;12.25;8.23;;;;;;;;;;5049652;28;20025;-67
2022/12/26 01:05:07;;;;;;;10.48;7.20;;;;;;;;;;5051712;28;20032;-67
2022/12/26 01:07:34;;;;;;;13.80;7.60;;;;;;;;;;5055823;28;20472;-67
2022/12/26 01:09:59;;;;;;;14.70;7.80;;;;;;;;;;5054722;28;20096;-67
2022/12/26 01:12:26;;;;;;;13.23;7.18;;;;;;;;;;5054444;28;20442;-67
2022/12/26 01:14:51;;;;;;;17.40;9.70;;;;;;;;;;5052227;28;20021;-67
2022/12/26 01:17:16;;;;;;;11.25;8.30;;;;;;;;;;5055021;28;20031;-67
2022/12/26 01:19:41;;;;;;;12.57;8.32;;;;;;;;;;5051683;28;20040;-67
2022/12/26 01:22:07;;;;;;;12.63;7.40;;;;;;;;;;5054406;28;20048;-67
2022/12/26 01:24:32;;;;;;;10.95;8.30;;;;;;;;;;5053601;28;20251;-67
2022/12/26 01:26:57;;;;;;;13.48;7.55;;;;;;;;;;5054431;28;20037;-67
2022/12/26 01:29:22;;;;;;;12.98;8.68;;;;;;;;;;5055399;28;20021;-67
2022/12/26 01:31:48;;;;;;;10.55;7.65;;;;;;;;;;5049580;28;20424;-67
2022/12/26 01:34:13;;;;;;;9.35;7.45;;;;;;;;;;5052807;28;20043;-68
2022/12/26 01:36:38;;;;;;;12.18;7.65;;;;;;;;;;5043362;28;20031;-68
2022/12/26 01:39:03;;;;;;;17.23;8.10;;;;;;;;;;5041092;28;20475;-67
2022/12/26 01:41:31;;;;;;;12.68;7.78;;;;;;;;;;5052137;28;20079;-67
2022/12/26 01:43:59;;;;;;;24.77;8.82;;;;;;;;;;5053725;28;20017;-67
2022/12/26 01:46:37;;;;;;;11.57;7.93;;;;;;;;;;5053966;28;20029;-67
2022/12/26 01:49:26;;;;;;;13.10;9.68;;;;;;;;;;5044904;28;20040;-67
2022/12/26 01:51:53;;;;;;;12.13;8.77;;;;;;;;;;5047646;28;20042;-67
2022/12/26 01:54:19;;;;;;;12.98;9.35;;;;;;;;;;5039531;28;20013;-67
2022/12/26 01:56:45;;;;;;;15.38;9.68;;;;;;;;;;5051412;28;20040;-67
2022/12/26 01:59:22;;;;;;;11.35;9.48;;;;;;;;;;5049682;28;20094;-68
2022/12/26 02:01:49;;;;;;;14.30;9.20;;;;;;;;;;5051218;28;20033;-68
2022/12/26 02:07:04;;;;;;;11.38;7.85;;;;;;;;;;5038879;28;20384;-67
2022/12/26 02:09:30;;;;;;;9.95;6.90;;;;;;;;;;5039959;28;20056;-68
2022/12/26 02:11:58;;;;;;;8.52;6.85;;;;;;;;;;5048833;28;20155;-68
2022/12/26 02:14:24;;;;;;;10.32;7.30;;;;;;;;;;5051491;28;20102;-67
2022/12/26 02:16:49;;;;;;;6.72;5.95;;;;;;;;;;5051533;28;20017;-67
2022/12/26 02:19:25;;;;;;;8.30;6.47;;;;;;;;;;5050217;28;21424;-68
2022/12/26 02:22:07;;;;;;;7.90;6.32;;;;;;;;;;5052094;28;20033;-67
2022/12/26 02:24:45;;;;;;;9.02;6.30;;;;;;;;;;5050980;28;20456;-67
2022/12/26 02:27:25;;;;;;;9.15;6.57;;;;;;;;;;5035530;28;20124;-67
2022/12/26 02:30:02;;;;;;;8.75;6.63;;;;;;;;;;5043544;28;20420;-68
2022/12/26 02:32:36;;;;;;;9.68;7.72;;;;;;;;;;5052818;28;20028;-68
2022/12/26 02:35:01;;;;;;;;;;;;;;;;;;5048897;28;20036;-67
2022/12/26 02:37:45;;;;;;;10.32;7.72;;;;;;;;;;5047948;28;19905;-67
2022/12/26 02:40:29;;;;;;;11.98;7.78;;;;;;;;;;5021127;28;20025;-67
2022/12/26 02:42:58;;;;;;;11.27;8.07;;;;;;;;;;5042193;28;20017;-67
2022/12/26 02:48:30;;;;;;;11.40;8.53;;;;;;;;;;4994138;28;1541412;-68
2022/12/26 03:13:22;;;;;;;16.00;10.48;;;;;;;;;;5052334;28;19971;-67
2022/12/26 03:18:40;;;;;;;11.13;8.98;;;;;;;;;;5041121;28;20490;-67
2022/12/26 03:21:07;;;;;;;17.88;11.25;;;;;;;;;;5047567;28;20084;-67
2022/12/26 03:23:35;;;;;;;12.25;10.43;;;;;;;;;;5049350;28;20039;-67
2022/12/26 03:28:48;;;;;;;15.82;10.20;;;;;;;;;;5039628;28;20134;-67
2022/12/26 03:31:14;;;;;;;16.40;10.30;;;;;;;;;;5052448;28;20021;-68
2022/12/26 03:36:25;;;;;;;13.15;11.77;;;;;;;;;;5050736;28;20043;-67
2022/12/26 03:39:08;;;;;;;14.18;10.57;;;;;;;;;;5051155;28;20009;-67
2022/12/26 04:46:11;;;;;;;7.68;6.88;;;;;;;;;;5038392;28;20024;-67
2022/12/26 04:51:27;;;;;;;10.00;7.28;;;;;;;;;;5040614;28;20548;-67
2022/12/26 04:53:52;;;;;;;8.90;6.72;;;;;;;;;;5048355;28;20020;-67
2022/12/26 04:56:18;;;;;;;9.20;6.35;;;;;;;;;;5049953;28;20383;-67
2022/12/26 04:58:43;;;;;;;8.27;7.32;;;;;;;;;;5048997;28;20025;-67
2022/12/26 05:09:33;;;;;;;9.45;6.15;;;;;;;;;;5043567;28;20036;-67
2022/12/26 05:11:58;;;;;;;9.18;5.97;;;;;;;;;;5036887;28;20018;-67
2022/12/26 05:14:23;;;;;;;6.70;5.22;;;;;;;;;;5050776;28;20013;-67
2022/12/26 05:30:28;;;;;;;8.50;4.63;;;;;;;;;;5044387;28;20498;-67
2022/12/26 05:35:38;;;;;;;7.00;4.90;;;;;;;;;;5046774;28;20032;-68
2022/12/26 05:38:03;;;;;;;6.43;4.93;;;;;;;;;;5040898;28;20272;-68
2022/12/26 05:40:28;;;;;;;6.15;4.38;;;;;;;;;;5050503;28;20037;-68
2022/12/26 05:42:54;;;;;;;6.35;5.07;;;;;;;;;;5052575;28;20100;-68
2022/12/26 05:45:19;;;;;;;14.93;5.03;;;;;;;;;;5033029;28;20057;-68
2022/12/26 05:47:44;;;;;;;8.85;4.78;;;;;;;;;;5052238;28;20740;-67
2022/12/26 05:50:09;;;;;;;9.05;4.75;;;;;;;;;;5054178;28;20100;-67
2022/12/26 05:52:35;;;;;;;6.65;4.85;;;;;;;;;;5054550;28;20055;-67
2022/12/26 05:55:00;;;;;;;9.80;5.28;;;;;;;;;;5053549;28;20013;-67
2022/12/26 05:57:25;;;;;;;6.95;4.65;;;;;;;;;;5053674;28;20459;-68
2022/12/26 05:59:50;;;;;;;7.35;4.60;;;;;;;;;;5050537;28;20063;-67
2022/12/26 06:02:16;;;;;;;7.18;4.05;;;;;;;;;;5054267;28;20013;-68
2022/12/26 06:04:41;;;;;;;8.48;4.18;;;;;;;;;;5054285;28;20486;-68
2022/12/26 06:07:06;;;;;;;7.20;4.47;;;;;;;;;;5053922;28;20024;-68
2022/12/26 06:09:31;;;;;;;6.63;4.28;;;;;;;;;;5075047;28;20279;-68
2022/12/26 06:11:57;;;;;;;7.60;4.28;;;;;;;;;;5051763;28;20119;-67
2022/12/26 06:14:22;;;;;;;7.30;4.53;;;;;;;;;;5052389;28;20027;-67
2022/12/26 06:16:47;;;;;;;5.78;3.33;;;;;;;;;;5054508;28;20051;-67
2022/12/26 06:19:12;;;;;;;6.13;3.53;;;;;;;;;;5053227;28;20029;-71
2022/12/26 06:21:38;;;;;;;6.97;3.57;;;;;;;;;;5054295;28;20358;-67
2022/12/26 06:24:03;;;;;;;4.75;3.15;;;;;;;;;;5045327;28;20268;-68
2022/12/26 06:26:28;;;;;;;4.07;2.78;;;;;;;;;;5050912;28;20013;-68
2022/12/26 06:28:53;;;;;;;5.43;3.17;;;;;;;;;;5043028;28;20021;-68
2022/12/26 06:31:21;;;;;;;4.23;2.60;;;;;;;;;;5008406;28;20040;-68
2022/12/26 06:33:47;;;;;;;3.97;2.72;;;;;;;;;;5011691;28;20252;-68
2022/12/26 06:36:14;;;;;;;4.18;2.45;;;;;;;;;;5028536;28;20032;-67
2022/12/26 06:38:39;;;;;;;3.63;2.15;;;;;;;;;;5049524;28;20466;-67
2022/12/26 06:41:05;;;;;;;4.10;2.30;;;;;;;;;;5052223;28;20036;-68
2022/12/26 06:43:30;;;;;;;5.72;1.98;;;;;;;;;;5052577;28;20126;-67
2022/12/26 06:45:56;;;;;;;3.72;1.67;;;;;;;;;;5052499;28;20053;-68
2022/12/26 06:48:22;;;;;;;4.82;1.90;;;;;;;;;;5051481;28;20017;-67
2022/12/26 06:50:47;;;;;;;2.50;1.45;;;;;;;;;;5051906;28;20005;-68
2022/12/26 06:53:12;;;;;;;2.47;1.45;;;;;;;;;;5026885;28;20112;-68
2022/12/26 06:55:38;;;;;;;2.33;1.50;;;;;;;;;;5036230;28;20482;-68
2022/12/26 06:58:03;;;;;;;4.13;1.90;;;;;;;;;;5029622;28;20024;-67
2022/12/26 07:00:28;;;;;;;3.67;1.63;;;;;;;;;;5023817;28;20041;-70
2022/12/26 07:02:54;;;;;;;3.30;1.25;;;;;;;;;;5021274;28;20013;-67
2022/12/26 07:05:19;;;;;;;2.95;1.58;;;;;;;;;;5020870;28;20033;-68
2022/12/26 07:07:48;;;;;;;7.60;1.80;;;;;;;;;;5021781;28;20748;-67
2022/12/26 07:10:14;;;;;;;2.28;1.02;;;;;;;;;;5017534;28;20017;-66
2022/12/26 07:12:39;;;;;;;2.25;1.15;;;;;;;;;;5016086;28;20133;-67
2022/12/26 07:15:04;;;;;;;2.27;1.00;;;;;;;;;;5025458;28;20811;-67
2022/12/26 07:17:30;;;;;;;2.95;1.40;;;;;;;;;;5020890;28;21062;-68
2022/12/26 07:19:55;;;;;;;2.65;1.08;;;;;;;;;;5020824;28;20066;-68
2022/12/26 07:22:20;;;;;;;2.22;1.10;;;;;;;;;;5022732;28;20024;-67
2022/12/26 07:24:45;;;;;;;2.43;1.30;;;;;;;;;;5020277;28;20020;-67
2022/12/26 07:27:11;;;;;;;2.58;1.02;;;;;;;;;;5015505;28;20280;-66
2022/12/26 07:29:36;;;;;;;2.63;1.30;;;;;;;;;;5013121;28;20057;-66
2022/12/26 07:32:01;;;;;;;6.72;1.40;;;;;;;;;;5004691;28;20896;-67
2022/12/26 07:34:27;;;;;;;4.00;1.38;;;;;;;;;;5005046;28;20808;-68
2022/12/26 07:36:52;;;;;;;3.97;1.45;;;;;;;;;;5004764;28;20021;-67
2022/12/26 07:39:17;;;;;;;3.63;1.30;;;;;;;;;;5003626;28;20037;-67
2022/12/26 07:41:58;;;;;;;3.30;0.95;;;;;;;;;;5005591;28;21507;-68
2022/12/26 07:44:27;;;;;;;2.60;1.35;;;;;;;;;;5003473;28;20797;-67
2022/12/26 07:46:53;;;;;;;1.83;0.88;;;;;;;;;;5003891;28;20071;-67
2022/12/26 07:49:19;;;;;;;4.07;1.17;;;;;;;;;;5005014;28;20842;-68
2022/12/26 07:51:44;;;;;;;4.00;1.50;;;;;;;;;;5003185;28;20184;-68
2022/12/26 07:54:10;;;;;;;2.80;1.05;;;;;;;;;;5006547;28;20040;-68
2022/12/26 07:56:35;;;;;;;4.05;1.65;;;;;;;;;;5006069;28;20944;-68
2022/12/26 07:59:00;;;;;;;4.20;1.75;;;;;;;;;;5004720;28;20767;-67
2022/12/26 08:01:27;;;;;;;6.78;5.10;;;;;;;;;;5003862;28;20186;-68
2022/12/26 08:03:52;;;;;;;9.77;4.50;;;;;;;;;;5004143;28;20083;-68
2022/12/26 08:06:17;;;;;;;4.72;3.22;;;;;;;;;;5004500;28;20914;-67
2022/12/26 08:08:43;;;;;;;7.88;2.30;;;;;;;;;;5004554;28;20090;-68
2022/12/26 08:11:12;;;;;;;5.70;1.17;;;;;;;;;;5005262;28;20017;-67
2022/12/26 08:13:37;;;;;;;3.00;1.40;;;;;;;;;;5005453;28;20880;-68
2022/12/26 08:16:04;;;;;;;3.22;1.63;;;;;;;;;;4997022;28;20053;-67
2022/12/26 08:18:29;;;;;;;3.95;2.17;;;;;;;;;;4995072;28;20021;-67
2022/12/26 08:20:56;;;;;;;3.05;1.63;;;;;;;;;;4997290;28;20136;-67
2022/12/26 08:23:21;;;;;;;4.65;1.42;;;;;;;;;;4991756;28;20071;-67
2022/12/26 08:25:47;;;;;;;5.60;1.60;;;;;;;;;;4992194;28;20131;-67
2022/12/26 08:28:12;;;;;;;3.00;1.27;;;;;;;;;;4992240;28;20288;-67
2022/12/26 08:30:39;;;;;;;2.90;1.73;;;;;;;;;;4994594;28;20104;-67
2022/12/26 08:33:04;;;;;;;3.35;1.65;;;;;;;;;;4996749;28;20017;-68
2022/12/26 08:35:29;;;;;;;3.23;1.63;;;;;;;;;;5000141;28;21076;-67
2022/12/26 08:37:54;;;;;;;3.10;1.40;;;;;;;;;;5004039;28;21095;-67
2022/12/26 08:40:20;;;;;;;5.68;2.20;;;;;;;;;;5005844;28;20068;-67
2022/12/26 08:42:45;;;;;;;2.95;1.40;;;;;;;;;;5003934;28;20960;-67
2022/12/26 08:45:10;;;;;;;7.47;1.87;;;;;;;;;;5005063;28;20017;-67
2022/12/26 08:47:35;;;;;;;6.37;1.63;;;;;;;;;;5007363;28;21223;-68
2022/12/26 08:50:00;;;;;;;4.60;1.40;;;;;;;;;;5008660;28;20333;-67
2022/12/26 08:52:26;;;;;;;4.50;1.98;;;;;;;;;;5007294;28;20412;-67
2022/12/26 08:54:51;;;;;;;4.10;1.40;;;;;;;;;;5008474;28;20025;-67
2022/12/26 08:57:16;;;;;;;4.85;1.38;;;;;;;;;;5011140;28;20021;-67
2022/12/26 08:59:41;;;;;;;5.13;2.20;;;;;;;;;;5007529;28;20017;-67
2022/12/26 09:02:09;;;;;;;4.70;1.83;;;;;;;;;;5006040;28;21182;-67
2022/12/26 09:04:34;;;;;;;3.95;1.42;;;;;;;;;;4994297;28;20009;-67
2022/12/26 09:06:59;;;;;;;5.57;2.30;;;;;;;;;;4995854;28;20024;-66
2022/12/26 09:09:24;;;;;;;8.25;2.20;;;;;;;;;;5003988;28;20056;-67
2022/12/26 09:11:50;;;;;;;3.85;1.50;;;;;;;;;;5005425;28;20817;-67
2022/12/26 09:14:15;;;;;;;4.07;1.58;;;;;;;;;;5004990;28;20082;-67
2022/12/26 09:16:41;;;;;;;7.20;2.03;;;;;;;;;;5006766;28;20039;-67
2022/12/26 09:19:08;;;;;;;3.55;1.80;;;;;;;;;;5009401;28;20082;-68
2022/12/26 09:21:34;;;;;;;4.00;2.00;;;;;;;;;;5006354;28;20032;-68
2022/12/26 09:24:03;;;;;;;5.22;1.83;;;;;;;;;;5010207;28;20025;-67
2022/12/26 09:26:29;;;;;;;5.95;2.50;;;;;;;;;;5010506;28;20036;-69
2022/12/26 09:28:55;;;;;;;4.15;1.83;;;;;;;;;;5009111;28;20025;-71
2022/12/26 09:31:22;;;;;;;4.22;1.55;;;;;;;;;;5008608;28;20074;-69
2022/12/26 09:33:48;;;;;;;3.63;1.63;;;;;;;;;;5007533;28;20025;-69
2022/12/26 09:36:15;;;;;;;6.95;1.90;;;;;;;;;;5009488;28;20021;-69
2022/12/26 09:38:41;;;;;;;8.00;1.80;;;;;;;;;;5008020;28;20838;-71
2022/12/26 09:41:15;;;;;;;6.55;2.13;;;;;;;;;;5004134;28;20108;-69
2022/12/26 09:43:57;;;;;;;5.60;2.60;;;;;;;;;;5007550;28;20017;-69
2022/12/26 09:46:22;;;;;;;5.05;2.83;;;;;;;;;;5007092;28;20148;-68
2022/12/26 09:48:53;;;;;;;4.77;1.93;;;;;;;;;;4998683;28;20021;-67
2022/12/26 09:51:19;;;;;;;5.22;2.47;;;;;;;;;;5006464;28;20279;-69
2022/12/26 09:53:46;;;;;;;4.35;1.58;;;;;;;;;;5006411;28;20142;-72
2022/12/26 09:56:15;;;;;;;3.78;1.40;;;;;;;;;;5024387;28;20080;-71
2022/12/26 09:58:43;;;;;;;4.25;1.48;;;;;;;;;;5019204;28;20017;-71
2022/12/26 10:01:08;;;;;;;4.50;1.33;;;;;;;;;;5008885;28;20055;-76
2022/12/26 10:03:37;;;;;;;6.43;1.45;;;;;;;;;;5007649;28;20021;-71
2022/12/26 10:06:11;;;;;;;2.83;1.20;;;;;;;;;;5009854;28;20120;-71
2022/12/26 10:08:37;;;;;;;;;;;;;;;;;;5007041;28;20020;-72
2022/12/26 10:11:03;;;;;;;6.13;1.52;;;;;;;;;;5008452;28;19943;-72
2022/12/26 10:13:41;;;;;;;4.75;1.55;;;;;;;;;;5007665;28;20526;-72
2022/12/26 10:16:10;;;;;;;4.15;1.15;;;;;;;;;;5005743;28;20023;-71
2022/12/26 10:19:04;;;;;;;3.85;1.58;;;;;;;;;;5007490;28;20028;-71
2022/12/26 10:21:38;;;;;;;6.57;1.15;;;;;;;;;;5006333;28;21088;-71
2022/12/26 10:24:15;;;;;;;5.78;1.73;;;;;;;;;;5005484;28;20040;-71
2022/12/26 10:26:42;;;;;;;3.80;1.88;;;;;;;;;;5005607;28;20646;-72
2022/12/26 10:29:08;;;;;;;3.83;1.50;;;;;;;;;;5006654;28;20829;-71
2022/12/26 10:31:40;;;;;;;4.65;1.60;;;;;;;;;;5006226;28;20128;-71
2022/12/26 10:34:17;;;;;;;8.63;1.23;;;;;;;;;;5006345;28;20020;-71
2022/12/26 10:36:45;;;;;;;6.65;1.63;;;;;;;;;;5034218;28;20044;-71
2022/12/26 10:39:19;;;;;;;3.65;1.33;;;;;;;;;;5010911;28;20021;-71
2022/12/26 10:41:46;;;;;;;2.60;1.23;;;;;;;;;;5013631;28;20048;-71
2022/12/26 10:44:12;;;;;;;5.97;1.73;;;;;;;;;;5012158;28;20076;-72
2022/12/26 10:46:56;;;;;;;7.65;1.75;;;;;;;;;;5007015;28;20890;-71
2022/12/26 10:49:22;;;;;;;9.20;5.22;;;;;;;;;;5006045;28;20037;-72
2022/12/26 10:51:48;;;;;;;13.63;7.05;;;;;;;;;;5006136;28;21144;-81
2022/12/26 10:54:16;;;;;;;8.30;3.13;;;;;;;;;;5007624;28;20025;-78
2022/12/26 10:56:42;;;;;;;6.55;2.10;;;;;;;;;;5005638;28;20021;-78
2022/12/26 10:59:10;;;;;;;5.20;1.63;;;;;;;;;;5006166;28;20948;-77
2022/12/26 11:01:36;;;;;;;4.82;1.88;;;;;;;;;;5007202;28;20048;-77
2022/12/26 11:04:03;;;;;;;4.47;2.15;;;;;;;;;;5005703;28;20834;-77
2022/12/26 11:06:51;;;;;;;13.38;3.08;;;;;;;;;;5006924;28;20071;-78
2022/12/26 11:09:22;;;;;;;14.60;2.00;;;;;;;;;;5004939;28;20967;-78
2022/12/26 11:11:50;;;;;;;7.45;2.38;;;;;;;;;;5006721;28;20139;-78
2022/12/26 11:14:24;;;;;;;9.05;2.13;;;;;;;;;;5006902;28;20075;-78
2022/12/26 11:16:49;;;;;;;;;;;;;;;;;;5005591;28;20029;-76
2022/12/26 11:19:28;;;;;;;4.53;1.77;;;;;;;;;;5006777;28;19966;-78
2022/12/26 11:21:53;;;;;;;5.28;2.33;;;;;;;;;;5012383;28;20025;-72
2022/12/26 11:24:19;;;;;;;7.95;1.92;;;;;;;;;;5023956;28;20159;-71
2022/12/26 11:26:44;;;;;;;4.80;1.70;;;;;;;;;;5021677;28;20568;-72
2022/12/26 11:29:11;;;;;;;6.03;2.38;;;;;;;;;;5044175;28;20012;-72
2022/12/26 11:31:37;;;;;;;5.20;1.90;;;;;;;;;;5048687;28;20022;-72
2022/12/26 11:34:07;;;;;;;6.78;2.42;;;;;;;;;;5050659;28;20032;-72
2022/12/26 11:36:34;;;;;;;5.25;2.47;;;;;;;;;;5048920;28;20044;-72
2022/12/26 11:39:01;;;;;;;4.80;2.38;;;;;;;;;;5050117;28;20029;-71
2022/12/26 11:41:33;;;;;;;7.13;2.85;;;;;;;;;;5048824;28;20083;-71
2022/12/26 11:44:08;;;;;;;5.38;2.47;;;;;;;;;;5013419;28;21078;-70
2022/12/26 11:46:53;;;;;;;7.93;2.88;;;;;;;;;;5006002;28;20961;-73
2022/12/26 11:49:21;;;;;;;7.72;2.80;;;;;;;;;;5005817;28;20021;-72
2022/12/26 11:51:47;;;;;;;4.95;2.13;;;;;;;;;;5005476;28;20144;-72
2022/12/26 11:54:22;;;;;;;9.65;3.17;;;;;;;;;;5005395;28;20025;-73
2022/12/26 11:56:47;;;;;;;;;;;;;;;;;;5005383;28;20024;-73
2022/12/26 11:59:16;;;;;;;8.77;2.97;;;;;;;;;;5015278;28;20390;-73
2022/12/26 12:01:41;;;;;;;5.10;2.90;;;;;;;;;;5014852;28;20032;-77
2022/12/26 12:04:06;;;;;;;13.23;3.00;;;;;;;;;;5011659;28;20160;-73
2022/12/26 12:06:35;;;;;;;8.13;2.75;;;;;;;;;;5020105;28;20028;-73
2022/12/26 12:09:19;;;;;;;5.65;2.65;;;;;;;;;;5009282;28;21821;-73
2022/12/26 12:11:44;;;;;;;9.30;2.10;;;;;;;;;;5017227;28;20063;-72
2022/12/26 12:14:23;;;;;;;10.55;2.55;;;;;;;;;;5018435;28;20860;-73
2022/12/26 12:16:51;;;;;;;5.43;2.10;;;;;;;;;;5006278;28;20025;-74
2022/12/26 12:19:26;;;;;;;6.53;2.70;;;;;;;;;;5005522;28;20815;-73
2022/12/26 12:22:10;;;;;;;10.32;3.10;;;;;;;;;;5004245;28;20035;-72
2022/12/26 12:24:54;;;;;;;7.00;2.28;;;;;;;;;;5003745;28;20020;-74
2022/12/26 12:27:24;;;;;;;4.85;2.70;;;;;;;;;;5006144;28;20036;-73
2022/12/26 12:29:58;;;;;;;7.90;2.17;;;;;;;;;;5002760;28;20028;-73
2022/12/26 12:32:42;;;;;;;5.78;1.60;;;;;;;;;;5004254;28;20048;-73
2022/12/26 12:35:23;;;;;;;8.63;1.83;;;;;;;;;;5008314;28;20185;-73
2022/12/26 12:38:02;;;;;;;6.25;1.65;;;;;;;;;;5005683;28;20013;-75
2022/12/26 12:40:41;;;;;;;7.30;1.98;;;;;;;;;;5003777;28;20919;-74
2022/12/26 12:43:17;;;;;;;3.65;1.45;;;;;;;;;;5018358;28;20811;-73
2022/12/26 12:45:53;;;;;;;3.17;1.63;;;;;;;;;;5007625;28;20922;-73
2022/12/26 12:48:21;;;;;;;5.05;1.90;;;;;;;;;;5008630;28;20028;-73
2022/12/26 12:50:46;;;;;;;3.15;1.58;;;;;;;;;;5007410;28;20129;-71
2022/12/26 12:53:24;;;;;;;7.30;1.97;;;;;;;;;;5010145;28;20039;-75
2022/12/26 12:56:13;;;;;;;4.28;1.75;;;;;;;;;;5009741;28;20402;-77
2022/12/26 12:58:48;;;;;;;3.75;1.63;;;;;;;;;;5007321;28;20017;-77
2022/12/26 13:01:13;;;;;;;;;;;;;;;;;;5010314;28;20029;-80
2022/12/26 13:03:57;;;;;;;6.50;2.10;;;;;;;;;;5009411;28;19915;-76
2022/12/26 13:06:44;;;;;;;4.55;1.83;;;;;;;;;;5011652;28;20302;-77
2022/12/26 13:09:18;;;;;;;9.60;2.53;;;;;;;;;;5010982;28;20159;-81
2022/12/26 13:11:56;;;;;;;4.68;2.05;;;;;;;;;;5016190;28;20028;-75
2022/12/26 13:14:23;;;;;;;6.03;2.28;;;;;;;;;;5000683;28;20483;-73
2022/12/26 13:17:15;;;;;;;6.38;2.83;;;;;;;;;;5004374;28;20021;-77
2022/12/26 13:19:43;;;;;;;6.32;2.22;;;;;;;;;;5012090;28;20052;-75
2022/12/26 13:22:27;;;;;;;9.00;2.58;;;;;;;;;;5020769;28;20024;-76
2022/12/26 13:24:59;;;;;;;5.20;2.40;;;;;;;;;;5001840;28;20017;-75
2022/12/26 13:27:26;;;;;;;12.68;2.30;;;;;;;;;;5008713;28;20021;-77
2022/12/26 13:29:52;;;;;;;4.78;2.05;;;;;;;;;;5009109;28;20849;-75
2022/12/26 13:32:21;;;;;;;11.75;2.40;;;;;;;;;;5007795;28;20017;-75
2022/12/26 13:34:47;;;;;;;6.07;2.75;;;;;;;;;;5019453;28;20025;-75
2022/12/26 13:37:31;;;;;;;7.57;2.30;;;;;;;;;;5009068;28;20077;-75
2022/12/26 13:39:57;;;;;;;10.80;2.88;;;;;;;;;;5013459;28;20028;-75
2022/12/26 13:45:29;;;;;;;13.50;2.30;;;;;;;;;;5022409;28;20129;-72
2022/12/26 13:47:54;;;;;;;7.03;3.15;;;;;;;;;;5008664;28;20887;-75
2022/12/26 13:50:38;;;;;;;9.70;3.60;;;;;;;;;;5008028;28;20036;-71
2022/12/26 13:53:06;;;;;;;6.90;3.42;;;;;;;;;;5007446;28;20087;-70
2022/12/26 13:55:41;;;;;;;6.88;2.95;;;;;;;;;;5010460;28;20025;-72
2022/12/26 13:58:06;;;;;;;;;;;;;;;;;;5017850;28;20223;-72
2022/12/26 14:00:44;;;;;;;8.68;2.85;;;;;;;;;;5018041;28;19955;-71
2022/12/26 14:03:12;;;;;;;12.05;3.42;;;;;;;;;;5010997;28;20019;-71
2022/12/26 14:05:41;;;;;;;11.07;3.67;;;;;;;;;;5014908;28;20060;-87
2022/12/26 14:08:12;;;;;;;8.77;3.95;;;;;;;;;;5022222;28;20017;-75
2022/12/26 14:10:47;;;;;;;12.95;3.53;;;;;;;;;;5014960;28;20052;-80
2022/12/26 14:13:32;;;;;;;8.20;3.58;;;;;;;;;;5019866;28;20017;-80
2022/12/26 14:16:05;;;;;;;13.57;4.25;;;;;;;;;;5016465;28;20028;-69
2022/12/26 14:18:37;;;;;;;18.08;5.85;;;;;;;;;;5016034;28;20017;-67
2022/12/26 14:21:21;;;;;;;12.05;4.32;;;;;;;;;;5014744;28;20029;-71
2022/12/26 14:23:58;;;;;;;10.85;3.58;;;;;;;;;;5013099;28;20017;-74
2022/12/26 14:26:26;;;;;;;12.45;4.15;;;;;;;;;;5013709;28;20869;-72
2022/12/26 14:29:04;;;;;;;19.10;4.05;;;;;;;;;;5016271;28;20882;-71
2022/12/26 14:31:29;;;;;;;8.93;3.88;;;;;;;;;;5013490;28;20028;-76
2022/12/26 14:33:59;;;;;;;8.80;3.35;;;;;;;;;;5015644;28;20120;-75
2022/12/26 14:36:44;;;;;;;10.70;3.65;;;;;;;;;;5031223;28;20102;-73
2022/12/26 14:39:26;;;;;;;9.93;3.45;;;;;;;;;;5033429;28;20025;-72
2022/12/26 14:45:01;;;;;;;15.27;3.10;;;;;;;;;;5025327;28;20102;-76
2022/12/26 14:47:38;;;;;;;9.23;3.55;;;;;;;;;;5030988;28;20086;-81
2022/12/26 14:50:23;;;;;;;13.30;4.05;;;;;;;;;;5038617;28;20111;-70
2022/12/26 14:52:48;;;;;;;8.18;3.55;;;;;;;;;;5025426;28;20928;-68
2022/12/26 14:55:32;;;;;;;12.05;4.45;;;;;;;;;;5022659;28;20128;-71
2022/12/26 14:58:18;;;;;;;9.48;4.10;;;;;;;;;;5036191;28;20089;-74
2022/12/26 15:00:43;;;;;;;9.02;4.57;;;;;;;;;;5037318;28;20120;-75
2022/12/26 15:03:08;;;;;;;10.68;3.80;;;;;;;;;;5031280;28;20375;-67
2022/12/26 15:05:38;;;;;;;7.45;3.42;;;;;;;;;;5036934;28;20028;-69
2022/12/26 15:08:03;;;;;;;10.88;4.20;;;;;;;;;;5022531;28;20036;-69
2022/12/26 15:10:28;;;;;;;12.00;4.47;;;;;;;;;;5029782;28;20060;-69
2022/12/26 15:13:13;;;;;;;7.93;4.22;;;;;;;;;;5021639;28;20313;-80
2022/12/26 15:15:45;;;;;;;13.13;4.13;;;;;;;;;;5024760;28;20468;-70
2022/12/26 15:18:25;;;;;;;10.15;3.90;;;;;;;;;;5037058;28;20032;-76
2022/12/26 15:21:06;;;;;;;6.82;3.78;;;;;;;;;;5040035;28;20799;-72
2022/12/26 15:23:37;;;;;;;7.93;3.75;;;;;;;;;;5030892;28;20425;-77
2022/12/26 15:26:02;;;;;;;8.07;3.70;;;;;;;;;;5023322;28;20017;-74
2022/12/26 15:28:46;;;;;;;6.97;3.60;;;;;;;;;;5007044;28;20774;-80
2022/12/26 15:31:23;;;;;;;11.85;4.95;;;;;;;;;;5019490;28;20275;-73
2022/12/26 15:33:57;;;;;;;10.85;4.25;;;;;;;;;;5025670;28;20040;-74
2022/12/26 15:36:41;;;;;;;17.15;3.88;;;;;;;;;;5021583;28;20139;-72
2022/12/26 15:39:25;;;;;;;10.73;3.73;;;;;;;;;;5051256;28;20013;-80
2022/12/26 15:41:53;;;;;;;11.90;4.33;;;;;;;;;;5050645;28;20037;-70
2022/12/26 15:44:39;;;;;;;13.30;5.00;;;;;;;;;;5051358;28;20479;-72
2022/12/26 15:47:16;;;;;;;13.25;3.60;;;;;;;;;;5050774;28;20029;-73
2022/12/26 15:49:46;;;;;;;12.07;3.25;;;;;;;;;;5046945;28;20027;-71
2022/12/26 15:52:30;;;;;;;6.18;2.90;;;;;;;;;;5044823;28;20016;-70
2022/12/26 15:54:55;;;;;;;6.97;3.03;;;;;;;;;;5038654;28;20036;-73
2022/12/26 15:57:33;;;;;;;12.63;3.17;;;;;;;;;;5044106;28;20017;-75
2022/12/26 16:00:04;;;;;;;6.20;2.55;;;;;;;;;;5044509;28;20364;-70
2022/12/26 16:02:43;;;;;;;5.22;2.78;;;;;;;;;;5046359;28;20028;-68
2022/12/26 16:05:17;;;;;;;7.60;3.33;;;;;;;;;;5047958;28;20279;-77
2022/12/26 16:07:43;;;;;;;;;;;;;;;;;;5038834;28;20048;-71
2022/12/26 16:10:23;;;;;;;10.27;2.63;;;;;;;;;;5042997;28;20035;-79
2022/12/26 16:12:57;;;;;;;8.38;2.72;;;;;;;;;;5035346;28;20047;-83
2022/12/26 16:15:23;;;;;;;13.45;2.78;;;;;;;;;;5042825;28;20100;-81
2022/12/26 16:17:49;;;;;;;13.95;2.70;;;;;;;;;;5038855;28;20017;-82
2022/12/26 16:22:42;;;;;;;12.25;3.15;;;;;;;;;;5044430;28;20028;-77
2022/12/26 16:23:05;;;;;;;12.18;2.85;;;;;;;;;;5039534;28;20032;-83
2022/12/26 16:25:30;;;;;;;13.10;2.85;;;;;;;;;;5042240;28;20020;-80
2022/12/26 16:27:56;;;;;;;7.20;3.00;;;;;;;;;;5038678;28;20033;-76
2022/12/26 16:30:24;;;;;;;4.28;2.38;;;;;;;;;;5038395;28;20031;-78
2022/12/26 16:32:50;;;;;;;7.78;2.63;;;;;;;;;;5041121;28;20017;-75
2022/12/26 16:35:17;;;;;;;8.02;2.50;;;;;;;;;;5027962;28;20025;-79
2022/12/26 16:37:42;;;;;;;7.10;3.00;;;;;;;;;;5029014;28;20035;-77
2022/12/26 16:40:10;;;;;;;8.40;2.50;;;;;;;;;;5030977;28;20028;-82
2022/12/26 16:42:36;;;;;;;13.30;3.20;;;;;;;;;;5022158;28;20032;-76
2022/12/26 16:45:02;;;;;;;6.32;2.47;;;;;;;;;;5034652;28;20021;-75
2022/12/26 16:47:28;;;;;;;6.68;2.92;;;;;;;;;;5026383;28;20463;-75
2022/12/26 16:49:55;;;;;;;5.22;2.67;;;;;;;;;;5028181;28;21004;-76
2022/12/26 16:52:29;;;;;;;8.88;2.42;;;;;;;;;;5026818;28;20032;-75
2022/12/26 16:54:54;;;;;;;9.68;3.10;;;;;;;;;;5021712;28;20743;-76
2022/12/26 16:57:20;;;;;;;11.55;3.28;;;;;;;;;;5024881;28;20021;-78
2022/12/26 16:59:54;;;;;;;9.27;2.53;;;;;;;;;;5031800;28;20033;-76
2022/12/26 17:02:30;;;;;;;7.07;2.72;;;;;;;;;;5036366;28;20029;-78
2022/12/26 17:05:01;;;;;;;6.05;2.67;;;;;;;;;;5038894;28;20789;-77
2022/12/26 17:07:26;;;;;;;9.57;2.53;;;;;;;;;;5033262;28;20831;-75
2022/12/26 17:09:56;;;;;;;6.75;2.83;;;;;;;;;;5034884;28;20025;-75